sensor_id;sensor_type;location;lat;lon;timestamp;pressure;altitude;pressure_sealevel;temperature
34023;BMP280;20673;48.980;8.138;2022-07-23T00:01:36;99959.97;;;23.37
34023;BMP280;20673;48.980;8.138;2022-07-23T00:04:03;99964.89;;;23.38
34023;BMP280;20673;48.980;8.138;2022-07-23T00:06:29;99963.72;;;23.33
34023;BMP280;20673;48.980;8.138;2022-07-23T00:08:55;99963.73;;;23.26
34023;BMP280;20673;48.980;8.138;2022-07-23T00:11:21;99971.96;;;23.21
34023;BMP280;20673;48.980;8.138;2022-07-23T00:13:48;99975.82;;;23.18
34023;BMP280;20673;48.980;8.138;2022-07-23T00:16:14;99973.44;;;23.12
34023;BMP280;20673;48.980;8.138;2022-07-23T00:18:41;99980.29;;;23.09
34023;BMP280;20673;48.980;8.138;2022-07-23T00:21:07;99980.31;;;23.08
34023;BMP280;20673;48.980;8.138;2022-07-23T00:23:34;99983.08;;;23.07
34023;BMP280;20673;48.980;8.138;2022-07-23T00:26:00;99980.60;;;23.04
34023;BMP280;20673;48.980;8.138;2022-07-23T00:28:26;99982.22;;;23.01
34023;BMP280;20673;48.980;8.138;2022-07-23T00:30:52;99982.01;;;23.00
34023;BMP280;20673;48.980;8.138;2022-07-23T00:33:18;99986.11;;;22.95
34023;BMP280;20673;48.980;8.138;2022-07-23T00:35:44;99990.76;;;22.90
34023;BMP280;20673;48.980;8.138;2022-07-23T00:38:11;99981.67;;;22.82
34023;BMP280;20673;48.980;8.138;2022-07-23T00:40:38;99974.28;;;22.70
34023;BMP280;20673;48.980;8.138;2022-07-23T00:43:05;99976.33;;;22.59
34023;BMP280;20673;48.980;8.138;2022-07-23T00:45:32;99984.90;;;22.64
34023;BMP280;20673;48.980;8.138;2022-07-23T00:47:59;99987.28;;;22.55
34023;BMP280;20673;48.980;8.138;2022-07-23T00:50:25;99974.62;;;22.49
34023;BMP280;20673;48.980;8.138;2022-07-23T00:52:53;99970.42;;;22.47
34023;BMP280;20673;48.980;8.138;2022-07-23T00:55:19;99962.18;;;22.46
34023;BMP280;20673;48.980;8.138;2022-07-23T00:57:47;99955.22;;;22.36
34023;BMP280;20673;48.980;8.138;2022-07-23T01:00:15;99964.55;;;22.19
34023;BMP280;20673;48.980;8.138;2022-07-23T01:02:42;99971.87;;;22.22
34023;BMP280;20673;48.980;8.138;2022-07-23T01:05:09;99967.78;;;22.20
34023;BMP280;20673;48.980;8.138;2022-07-23T01:07:36;99960.29;;;22.22
34023;BMP280;20673;48.980;8.138;2022-07-23T01:10:04;99963.37;;;22.14
34023;BMP280;20673;48.980;8.138;2022-07-23T01:12:30;99958.19;;;22.09
34023;BMP280;20673;48.980;8.138;2022-07-23T01:14:59;99958.70;;;21.99
34023;BMP280;20673;48.980;8.138;2022-07-23T01:17:26;99962.40;;;21.94
34023;BMP280;20673;48.980;8.138;2022-07-23T01:19:53;99964.97;;;21.81
34023;BMP280;20673;48.980;8.138;2022-07-23T01:22:20;99963.34;;;21.73
34023;BMP280;20673;48.980;8.138;2022-07-23T01:24:47;99963.69;;;21.67
34023;BMP280;20673;48.980;8.138;2022-07-23T01:27:13;99960.00;;;21.61
34023;BMP280;20673;48.980;8.138;2022-07-23T01:29:39;99959.98;;;21.58
34023;BMP280;20673;48.980;8.138;2022-07-23T01:32:06;99962.18;;;21.54
34023;BMP280;20673;48.980;8.138;2022-07-23T01:34:32;99963.95;;;21.57
34023;BMP280;20673;48.980;8.138;2022-07-23T01:36:58;99963.78;;;21.57
34023;BMP280;20673;48.980;8.138;2022-07-23T01:39:24;99965.70;;;21.53
34023;BMP280;20673;48.980;8.138;2022-07-23T01:41:50;99967.94;;;21.51
34023;BMP280;20673;48.980;8.138;2022-07-23T01:44:17;99959.04;;;21.44
34023;BMP280;20673;48.980;8.138;2022-07-23T01:46:43;99963.72;;;21.37
34023;BMP280;20673;48.980;8.138;2022-07-23T01:49:09;99955.22;;;21.37
34023;BMP280;20673;48.980;8.138;2022-07-23T01:51:35;99949.36;;;21.37
34023;BMP280;20673;48.980;8.138;2022-07-23T01:54:02;99950.27;;;21.36
34023;BMP280;20673;48.980;8.138;2022-07-23T01:56:28;99949.98;;;21.28
34023;BMP280;20673;48.980;8.138;2022-07-23T01:58:54;99947.08;;;21.21
34023;BMP280;20673;48.980;8.138;2022-07-23T02:01:20;99951.43;;;21.16
34023;BMP280;20673;48.980;8.138;2022-07-23T02:03:47;99956.70;;;21.16
34023;BMP280;20673;48.980;8.138;2022-07-23T02:06:13;99958.90;;;21.07
34023;BMP280;20673;48.980;8.138;2022-07-23T02:08:39;99965.56;;;21.01
34023;BMP280;20673;48.980;8.138;2022-07-23T02:11:05;99959.95;;;20.90
34023;BMP280;20673;48.980;8.138;2022-07-23T02:13:32;99964.92;;;20.85
34023;BMP280;20673;48.980;8.138;2022-07-23T02:15:58;99975.42;;;20.80
34023;BMP280;20673;48.980;8.138;2022-07-23T02:18:24;99988.92;;;20.72
34023;BMP280;20673;48.980;8.138;2022-07-23T02:20:50;99984.61;;;20.67
34023;BMP280;20673;48.980;8.138;2022-07-23T02:23:16;99984.18;;;20.65
34023;BMP280;20673;48.980;8.138;2022-07-23T02:25:42;99985.74;;;20.61
34023;BMP280;20673;48.980;8.138;2022-07-23T02:28:09;99987.17;;;20.57
34023;BMP280;20673;48.980;8.138;2022-07-23T02:30:35;99999.59;;;20.51
34023;BMP280;20673;48.980;8.138;2022-07-23T02:33:02;99996.70;;;20.47
34023;BMP280;20673;48.980;8.138;2022-07-23T02:35:28;99993.22;;;20.40
34023;BMP280;20673;48.980;8.138;2022-07-23T02:37:54;99994.43;;;20.39
34023;BMP280;20673;48.980;8.138;2022-07-23T02:40:21;99999.83;;;20.30
34023;BMP280;20673;48.980;8.138;2022-07-23T02:42:47;100006.29;;;20.29
34023;BMP280;20673;48.980;8.138;2022-07-23T02:45:13;100020.62;;;20.29
34023;BMP280;20673;48.980;8.138;2022-07-23T02:47:39;100028.64;;;20.30
34023;BMP280;20673;48.980;8.138;2022-07-23T02:50:07;100029.41;;;20.33
34023;BMP280;20673;48.980;8.138;2022-07-23T02:52:34;100023.40;;;20.20
34023;BMP280;20673;48.980;8.138;2022-07-23T02:55:00;100022.43;;;20.20
34023;BMP280;20673;48.980;8.138;2022-07-23T02:57:27;100026.17;;;20.23
34023;BMP280;20673;48.980;8.138;2022-07-23T02:59:53;100028.53;;;20.23
34023;BMP280;20673;48.980;8.138;2022-07-23T03:02:19;100033.68;;;20.27
34023;BMP280;20673;48.980;8.138;2022-07-23T03:04:45;100035.20;;;20.28
34023;BMP280;20673;48.980;8.138;2022-07-23T03:07:12;100050.23;;;20.22
34023;BMP280;20673;48.980;8.138;2022-07-23T03:09:38;100053.63;;;20.27
34023;BMP280;20673;48.980;8.138;2022-07-23T03:12:05;100051.31;;;20.22
34023;BMP280;20673;48.980;8.138;2022-07-23T03:14:31;100050.42;;;20.25
34023;BMP280;20673;48.980;8.138;2022-07-23T03:16:57;100044.84;;;20.30
34023;BMP280;20673;48.980;8.138;2022-07-23T03:19:26;100041.59;;;20.35
34023;BMP280;20673;48.980;8.138;2022-07-23T03:21:52;100039.00;;;20.36
34023;BMP280;20673;48.980;8.138;2022-07-23T03:24:18;100043.86;;;20.37
34023;BMP280;20673;48.980;8.138;2022-07-23T03:26:44;100044.43;;;20.42
34023;BMP280;20673;48.980;8.138;2022-07-23T03:29:11;100034.68;;;20.46
34023;BMP280;20673;48.980;8.138;2022-07-23T03:31:37;100029.65;;;20.53
34023;BMP280;20673;48.980;8.138;2022-07-23T03:34:04;100028.03;;;20.57
34023;BMP280;20673;48.980;8.138;2022-07-23T03:36:30;100023.61;;;20.60
34023;BMP280;20673;48.980;8.138;2022-07-23T03:38:56;100021.81;;;20.64
34023;BMP280;20673;48.980;8.138;2022-07-23T03:41:22;100026.23;;;20.67
34023;BMP280;20673;48.980;8.138;2022-07-23T03:43:48;100035.70;;;20.55
34023;BMP280;20673;48.980;8.138;2022-07-23T03:46:14;100044.78;;;20.47
34023;BMP280;20673;48.980;8.138;2022-07-23T03:48:41;100050.56;;;20.45
34023;BMP280;20673;48.980;8.138;2022-07-23T03:51:07;100059.12;;;20.44
34023;BMP280;20673;48.980;8.138;2022-07-23T03:53:33;100060.86;;;20.46
34023;BMP280;20673;48.980;8.138;2022-07-23T03:55:59;100071.29;;;20.49
34023;BMP280;20673;48.980;8.138;2022-07-23T03:58:26;100076.53;;;20.53
34023;BMP280;20673;48.980;8.138;2022-07-23T04:00:52;100069.31;;;20.60
34023;BMP280;20673;48.980;8.138;2022-07-23T04:03:18;100057.40;;;20.67
34023;BMP280;20673;48.980;8.138;2022-07-23T04:05:44;100060.12;;;20.72
34023;BMP280;20673;48.980;8.138;2022-07-23T04:08:10;100061.83;;;20.72
34023;BMP280;20673;48.980;8.138;2022-07-23T04:10:36;100062.18;;;20.65
34023;BMP280;20673;48.980;8.138;2022-07-23T04:13:02;100071.03;;;20.52
34023;BMP280;20673;48.980;8.138;2022-07-23T04:15:28;100069.04;;;20.52
34023;BMP280;20673;48.980;8.138;2022-07-23T04:17:55;100070.95;;;20.42
34023;BMP280;20673;48.980;8.138;2022-07-23T04:20:21;100070.50;;;20.36
34023;BMP280;20673;48.980;8.138;2022-07-23T04:22:47;100063.04;;;20.25
34023;BMP280;20673;48.980;8.138;2022-07-23T04:25:13;100062.50;;;20.24
34023;BMP280;20673;48.980;8.138;2022-07-23T04:27:41;100062.97;;;20.17
34023;BMP280;20673;48.980;8.138;2022-07-23T04:30:08;100063.76;;;20.15
34023;BMP280;20673;48.980;8.138;2022-07-23T04:32:35;100065.09;;;20.12
34023;BMP280;20673;48.980;8.138;2022-07-23T04:35:01;100072.69;;;20.15
34023;BMP280;20673;48.980;8.138;2022-07-23T04:37:28;100075.89;;;20.13
34023;BMP280;20673;48.980;8.138;2022-07-23T04:39:54;100086.75;;;20.13
34023;BMP280;20673;48.980;8.138;2022-07-23T04:42:20;100085.51;;;20.12
34023;BMP280;20673;48.980;8.138;2022-07-23T04:44:46;100096.18;;;20.13
34023;BMP280;20673;48.980;8.138;2022-07-23T04:47:12;100103.59;;;20.10
34023;BMP280;20673;48.980;8.138;2022-07-23T04:49:38;100109.90;;;20.09
34023;BMP280;20673;48.980;8.138;2022-07-23T04:52:04;100112.90;;;20.11
34023;BMP280;20673;48.980;8.138;2022-07-23T04:54:30;100108.83;;;20.15
34023;BMP280;20673;48.980;8.138;2022-07-23T04:56:57;100102.16;;;20.20
34023;BMP280;20673;48.980;8.138;2022-07-23T04:59:23;100101.33;;;20.22
34023;BMP280;20673;48.980;8.138;2022-07-23T05:01:49;100098.92;;;20.28
34023;BMP280;20673;48.980;8.138;2022-07-23T05:04:15;100090.51;;;20.33
34023;BMP280;20673;48.980;8.138;2022-07-23T05:06:41;100077.22;;;20.36
34023;BMP280;20673;48.980;8.138;2022-07-23T05:09:08;100076.34;;;20.44
34023;BMP280;20673;48.980;8.138;2022-07-23T05:11:34;100075.34;;;20.50
34023;BMP280;20673;48.980;8.138;2022-07-23T05:14:00;100081.87;;;20.60
34023;BMP280;20673;48.980;8.138;2022-07-23T05:16:26;100085.58;;;20.72
34023;BMP280;20673;48.980;8.138;2022-07-23T05:18:52;100076.59;;;20.79
34023;BMP280;20673;48.980;8.138;2022-07-23T05:21:20;100085.91;;;20.84
34023;BMP280;20673;48.980;8.138;2022-07-23T05:23:46;100092.01;;;20.86
34023;BMP280;20673;48.980;8.138;2022-07-23T05:26:12;100100.79;;;20.86
34023;BMP280;20673;48.980;8.138;2022-07-23T05:28:38;100110.37;;;20.89
34023;BMP280;20673;48.980;8.138;2022-07-23T05:31:04;100114.58;;;20.83
34023;BMP280;20673;48.980;8.138;2022-07-23T05:33:30;100106.33;;;20.76
34023;BMP280;20673;48.980;8.138;2022-07-23T05:36:04;100093.67;;;20.68
34023;BMP280;20673;48.980;8.138;2022-07-23T05:38:32;100098.35;;;20.68
34023;BMP280;20673;48.980;8.138;2022-07-23T05:40:58;100102.03;;;20.72
34023;BMP280;20673;48.980;8.138;2022-07-23T05:43:25;100107.61;;;20.74
34023;BMP280;20673;48.980;8.138;2022-07-23T05:45:51;100124.83;;;20.72
34023;BMP280;20673;48.980;8.138;2022-07-23T05:48:18;100133.18;;;20.65
34023;BMP280;20673;48.980;8.138;2022-07-23T05:50:44;100145.04;;;20.70
34023;BMP280;20673;48.980;8.138;2022-07-23T05:53:10;100130.01;;;20.76
34023;BMP280;20673;48.980;8.138;2022-07-23T05:55:36;100116.83;;;20.82
34023;BMP280;20673;48.980;8.138;2022-07-23T05:58:02;100118.31;;;20.88
34023;BMP280;20673;48.980;8.138;2022-07-23T06:00:29;100120.61;;;20.99
34023;BMP280;20673;48.980;8.138;2022-07-23T06:02:56;100143.03;;;21.04
34023;BMP280;20673;48.980;8.138;2022-07-23T06:05:23;100159.58;;;21.00
34023;BMP280;20673;48.980;8.138;2022-07-23T06:07:49;100156.67;;;21.02
34023;BMP280;20673;48.980;8.138;2022-07-23T06:10:16;100152.14;;;21.10
34023;BMP280;20673;48.980;8.138;2022-07-23T06:12:42;100157.12;;;21.19
34023;BMP280;20673;48.980;8.138;2022-07-23T06:15:09;100155.34;;;21.34
34023;BMP280;20673;48.980;8.138;2022-07-23T06:17:36;100155.23;;;21.55
34023;BMP280;20673;48.980;8.138;2022-07-23T06:20:06;100159.43;;;21.76
34023;BMP280;20673;48.980;8.138;2022-07-23T06:22:33;100160.22;;;21.89
34023;BMP280;20673;48.980;8.138;2022-07-23T06:24:59;100159.93;;;22.04
34023;BMP280;20673;48.980;8.138;2022-07-23T06:27:25;100166.42;;;22.25
34023;BMP280;20673;48.980;8.138;2022-07-23T06:29:51;100179.38;;;22.46
34023;BMP280;20673;48.980;8.138;2022-07-23T06:32:17;100183.79;;;22.58
34023;BMP280;20673;48.980;8.138;2022-07-23T06:34:44;100184.10;;;22.73
34023;BMP280;20673;48.980;8.138;2022-07-23T06:37:10;100185.90;;;22.88
34023;BMP280;20673;48.980;8.138;2022-07-23T06:39:36;100187.70;;;22.92
34023;BMP280;20673;48.980;8.138;2022-07-23T06:42:03;100185.74;;;22.90
34023;BMP280;20673;48.980;8.138;2022-07-23T06:44:29;100182.12;;;22.90
34023;BMP280;20673;48.980;8.138;2022-07-23T06:46:56;100187.33;;;22.86
34023;BMP280;20673;48.980;8.138;2022-07-23T06:49:22;100184.51;;;22.82
34023;BMP280;20673;48.980;8.138;2022-07-23T06:51:48;100179.78;;;22.86
34023;BMP280;20673;48.980;8.138;2022-07-23T06:54:14;100177.48;;;22.89
34023;BMP280;20673;48.980;8.138;2022-07-23T06:56:40;100173.12;;;22.98
34023;BMP280;20673;48.980;8.138;2022-07-23T06:59:08;100179.90;;;22.96
34023;BMP280;20673;48.980;8.138;2022-07-23T07:01:34;100183.42;;;22.95
34023;BMP280;20673;48.980;8.138;2022-07-23T07:04:01;100186.31;;;23.04
34023;BMP280;20673;48.980;8.138;2022-07-23T07:06:27;100185.25;;;23.06
34023;BMP280;20673;48.980;8.138;2022-07-23T07:08:53;100188.50;;;22.93
34023;BMP280;20673;48.980;8.138;2022-07-23T07:11:20;100189.17;;;22.80
34023;BMP280;20673;48.980;8.138;2022-07-23T07:13:46;100189.90;;;22.85
34023;BMP280;20673;48.980;8.138;2022-07-23T07:16:13;100201.61;;;22.94
34023;BMP280;20673;48.980;8.138;2022-07-23T07:18:39;100204.31;;;23.13
34023;BMP280;20673;48.980;8.138;2022-07-23T07:21:05;100204.04;;;23.41
34023;BMP280;20673;48.980;8.138;2022-07-23T07:23:31;100195.93;;;23.58
34023;BMP280;20673;48.980;8.138;2022-07-23T07:25:58;100200.42;;;23.79
34023;BMP280;20673;48.980;8.138;2022-07-23T07:28:24;100202.10;;;24.01
34023;BMP280;20673;48.980;8.138;2022-07-23T07:30:50;100203.45;;;24.25
34023;BMP280;20673;48.980;8.138;2022-07-23T07:33:16;100206.00;;;24.33
34023;BMP280;20673;48.980;8.138;2022-07-23T07:35:43;100201.29;;;24.44
34023;BMP280;20673;48.980;8.138;2022-07-23T07:38:09;100210.33;;;24.16
34023;BMP280;20673;48.980;8.138;2022-07-23T07:40:35;100214.10;;;24.05
34023;BMP280;20673;48.980;8.138;2022-07-23T07:43:01;100213.76;;;24.09
34023;BMP280;20673;48.980;8.138;2022-07-23T07:45:29;100219.06;;;24.22
34023;BMP280;20673;48.980;8.138;2022-07-23T07:47:55;100204.26;;;24.49
34023;BMP280;20673;48.980;8.138;2022-07-23T07:50:22;100207.83;;;24.48
34023;BMP280;20673;48.980;8.138;2022-07-23T07:52:49;100211.62;;;24.68
34023;BMP280;20673;48.980;8.138;2022-07-23T07:55:15;100216.36;;;24.77
34023;BMP280;20673;48.980;8.138;2022-07-23T07:57:42;100215.53;;;24.91
34023;BMP280;20673;48.980;8.138;2022-07-23T08:00:10;100220.48;;;25.08
34023;BMP280;20673;48.980;8.138;2022-07-23T08:02:54;100220.40;;;25.20
34023;BMP280;20673;48.980;8.138;2022-07-23T08:05:23;100225.97;;;25.42
34023;BMP280;20673;48.980;8.138;2022-07-23T08:07:50;100221.62;;;25.48
34023;BMP280;20673;48.980;8.138;2022-07-23T08:10:18;100222.67;;;25.65
34023;BMP280;20673;48.980;8.138;2022-07-23T08:12:48;100225.98;;;25.78
34023;BMP280;20673;48.980;8.138;2022-07-23T08:15:17;100227.43;;;25.82
34023;BMP280;20673;48.980;8.138;2022-07-23T08:17:45;100225.11;;;26.10
34023;BMP280;20673;48.980;8.138;2022-07-23T08:20:14;100228.84;;;26.25
34023;BMP280;20673;48.980;8.138;2022-07-23T08:25:25;100233.25;;;26.30
34023;BMP280;20673;48.980;8.138;2022-07-23T08:27:50;100239.47;;;26.66
34023;BMP280;20673;48.980;8.138;2022-07-23T08:30:18;100228.95;;;26.73
34023;BMP280;20673;48.980;8.138;2022-07-23T08:33:05;100225.93;;;26.94
34023;BMP280;20673;48.980;8.138;2022-07-23T08:35:40;100226.75;;;27.01
34023;BMP280;20673;48.980;8.138;2022-07-23T08:38:09;100231.66;;;26.95
34023;BMP280;20673;48.980;8.138;2022-07-23T08:40:40;100236.14;;;27.15
34023;BMP280;20673;48.980;8.138;2022-07-23T08:43:09;100236.31;;;27.18
34023;BMP280;20673;48.980;8.138;2022-07-23T08:45:43;100234.73;;;26.85
34023;BMP280;20673;48.980;8.138;2022-07-23T08:48:25;100231.14;;;26.81
34023;BMP280;20673;48.980;8.138;2022-07-23T08:50:58;100235.51;;;27.28
34023;BMP280;20673;48.980;8.138;2022-07-23T08:53:27;100236.15;;;27.58
34023;BMP280;20673;48.980;8.138;2022-07-23T08:55:57;100238.37;;;27.84
34023;BMP280;20673;48.980;8.138;2022-07-23T08:58:25;100238.58;;;28.21
34023;BMP280;20673;48.980;8.138;2022-07-23T09:00:51;100237.61;;;28.54
34023;BMP280;20673;48.980;8.138;2022-07-23T09:03:24;100237.53;;;28.61
34023;BMP280;20673;48.980;8.138;2022-07-23T09:05:52;100238.37;;;28.51
34023;BMP280;20673;48.980;8.138;2022-07-23T09:08:23;100235.60;;;28.63
34023;BMP280;20673;48.980;8.138;2022-07-23T09:10:58;100232.45;;;28.53
34023;BMP280;20673;48.980;8.138;2022-07-23T09:13:52;100230.81;;;28.72
34023;BMP280;20673;48.980;8.138;2022-07-23T09:16:28;100230.61;;;28.63
34023;BMP280;20673;48.980;8.138;2022-07-23T09:19:05;100223.67;;;28.98
34023;BMP280;20673;48.980;8.138;2022-07-23T09:21:34;100223.98;;;29.43
34023;BMP280;20673;48.980;8.138;2022-07-23T09:24:04;100227.37;;;29.46
34023;BMP280;20673;48.980;8.138;2022-07-23T09:26:48;100228.98;;;29.50
34023;BMP280;20673;48.980;8.138;2022-07-23T09:29:25;100226.17;;;29.66
34023;BMP280;20673;48.980;8.138;2022-07-23T09:31:58;100230.22;;;29.42
34023;BMP280;20673;48.980;8.138;2022-07-23T09:34:34;100223.45;;;29.57
34023;BMP280;20673;48.980;8.138;2022-07-23T09:37:12;100223.06;;;29.32
34023;BMP280;20673;48.980;8.138;2022-07-23T09:39:41;100225.43;;;29.71
34023;BMP280;20673;48.980;8.138;2022-07-23T09:42:20;100228.50;;;29.84
34023;BMP280;20673;48.980;8.138;2022-07-23T09:44:50;100227.59;;;29.97
34023;BMP280;20673;48.980;8.138;2022-07-23T09:47:17;100231.81;;;29.86
34023;BMP280;20673;48.980;8.138;2022-07-23T09:50:06;100221.86;;;29.63
34023;BMP280;20673;48.980;8.138;2022-07-23T09:52:48;100220.17;;;29.84
34023;BMP280;20673;48.980;8.138;2022-07-23T09:55:18;100223.65;;;29.86
34023;BMP280;20673;48.980;8.138;2022-07-23T09:57:46;100221.64;;;29.67
34023;BMP280;20673;48.980;8.138;2022-07-23T10:00:15;100219.86;;;29.57
34023;BMP280;20673;48.980;8.138;2022-07-23T10:02:42;100221.13;;;29.66
34023;BMP280;20673;48.980;8.138;2022-07-23T10:05:10;100222.67;;;29.63
34023;BMP280;20673;48.980;8.138;2022-07-23T10:07:39;100224.23;;;29.91
34023;BMP280;20673;48.980;8.138;2022-07-23T10:10:07;100221.50;;;30.25
34023;BMP280;20673;48.980;8.138;2022-07-23T10:12:34;100226.96;;;30.32
34023;BMP280;20673;48.980;8.138;2022-07-23T10:15:19;100225.65;;;30.33
34023;BMP280;20673;48.980;8.138;2022-07-23T10:17:45;100227.15;;;30.66
34023;BMP280;20673;48.980;8.138;2022-07-23T10:20:11;100226.66;;;30.87
34023;BMP280;20673;48.980;8.138;2022-07-23T10:25:51;100221.67;;;31.63
34023;BMP280;20673;48.980;8.138;2022-07-23T10:31:47;100222.97;;;31.56
34023;BMP280;20673;48.980;8.138;2022-07-23T10:34:24;100221.61;;;31.16
34023;BMP280;20673;48.980;8.138;2022-07-23T10:36:57;100224.03;;;31.15
34023;BMP280;20673;48.980;8.138;2022-07-23T10:39:29;100212.61;;;30.63
34023;BMP280;20673;48.980;8.138;2022-07-23T10:42:13;100220.86;;;30.16
34023;BMP280;20673;48.980;8.138;2022-07-23T10:44:45;100214.97;;;29.91
34023;BMP280;20673;48.980;8.138;2022-07-23T10:47:30;100224.06;;;30.94
34023;BMP280;20673;48.980;8.138;2022-07-23T10:50:23;100214.70;;;31.35
34023;BMP280;20673;48.980;8.138;2022-07-23T10:53:14;100210.60;;;30.53
34023;BMP280;20673;48.980;8.138;2022-07-23T10:55:47;100220.68;;;31.29
34023;BMP280;20673;48.980;8.138;2022-07-23T10:58:20;100222.17;;;31.96
34023;BMP280;20673;48.980;8.138;2022-07-23T11:00:47;100218.85;;;32.12
34023;BMP280;20673;48.980;8.138;2022-07-23T11:03:34;100209.40;;;31.30
34023;BMP280;20673;48.980;8.138;2022-07-23T11:06:05;100206.27;;;30.89
34023;BMP280;20673;48.980;8.138;2022-07-23T11:08:32;100218.92;;;31.14
34023;BMP280;20673;48.980;8.138;2022-07-23T11:13:40;100226.32;;;31.44
34023;BMP280;20673;48.980;8.138;2022-07-23T11:16:16;100214.87;;;31.20
34023;BMP280;20673;48.980;8.138;2022-07-23T11:18:55;100219.87;;;30.97
34023;BMP280;20673;48.980;8.138;2022-07-23T11:24:08;100218.15;;;30.78
34023;BMP280;20673;48.980;8.138;2022-07-23T11:26:55;100214.18;;;31.08
34023;BMP280;20673;48.980;8.138;2022-07-23T11:34:41;100215.70;;;32.39
34023;BMP280;20673;48.980;8.138;2022-07-23T11:37:10;100207.78;;;31.92
34023;BMP280;20673;48.980;8.138;2022-07-23T11:39:37;100204.95;;;31.87
34023;BMP280;20673;48.980;8.138;2022-07-23T11:42:06;100208.66;;;31.87
34023;BMP280;20673;48.980;8.138;2022-07-23T11:44:39;100194.47;;;31.67
34023;BMP280;20673;48.980;8.138;2022-07-23T11:47:09;100195.34;;;31.48
34023;BMP280;20673;48.980;8.138;2022-07-23T11:49:36;100198.52;;;31.94
34023;BMP280;20673;48.980;8.138;2022-07-23T11:52:10;100205.84;;;32.10
34023;BMP280;20673;48.980;8.138;2022-07-23T11:57:27;100193.34;;;32.76
34023;BMP280;20673;48.980;8.138;2022-07-23T11:59:58;100200.08;;;32.10
34023;BMP280;20673;48.980;8.138;2022-07-23T12:02:24;100192.71;;;32.74
34023;BMP280;20673;48.980;8.138;2022-07-23T12:04:53;100182.63;;;33.30
34023;BMP280;20673;48.980;8.138;2022-07-23T12:07:36;100172.84;;;32.91
34023;BMP280;20673;48.980;8.138;2022-07-23T12:10:14;100172.98;;;32.20
34023;BMP280;20673;48.980;8.138;2022-07-23T12:12:52;100184.15;;;32.03
34023;BMP280;20673;48.980;8.138;2022-07-23T12:15:29;100190.48;;;32.55
34023;BMP280;20673;48.980;8.138;2022-07-23T12:17:59;100180.15;;;33.11
34023;BMP280;20673;48.980;8.138;2022-07-23T12:20:35;100177.84;;;33.01
34023;BMP280;20673;48.980;8.138;2022-07-23T12:23:06;100166.68;;;32.87
34023;BMP280;20673;48.980;8.138;2022-07-23T12:25:40;100171.98;;;32.14
34023;BMP280;20673;48.980;8.138;2022-07-23T12:28:19;100164.74;;;33.14
34023;BMP280;20673;48.980;8.138;2022-07-23T12:30:50;100171.68;;;33.50
34023;BMP280;20673;48.980;8.138;2022-07-23T12:33:31;100175.15;;;34.05
34023;BMP280;20673;48.980;8.138;2022-07-23T12:35:59;100161.15;;;33.48
34023;BMP280;20673;48.980;8.138;2022-07-23T12:38:35;100155.70;;;32.94
34023;BMP280;20673;48.980;8.138;2022-07-23T12:40:59;100165.48;;;32.17
34023;BMP280;20673;48.980;8.138;2022-07-23T12:43:42;100176.43;;;32.59
34023;BMP280;20673;48.980;8.138;2022-07-23T12:46:15;100173.09;;;33.14
34023;BMP280;20673;48.980;8.138;2022-07-23T12:51:29;100173.67;;;34.03
34023;BMP280;20673;48.980;8.138;2022-07-23T12:54:03;100170.87;;;33.74
34023;BMP280;20673;48.980;8.138;2022-07-23T12:56:31;100170.78;;;33.85
34023;BMP280;20673;48.980;8.138;2022-07-23T13:01:41;100169.12;;;33.54
34023;BMP280;20673;48.980;8.138;2022-07-23T13:04:19;100151.67;;;33.49
34023;BMP280;20673;48.980;8.138;2022-07-23T13:06:52;100165.68;;;33.84
34023;BMP280;20673;48.980;8.138;2022-07-23T13:09:23;100162.72;;;34.10
34023;BMP280;20673;48.980;8.138;2022-07-23T13:11:51;100158.94;;;34.66
34023;BMP280;20673;48.980;8.138;2022-07-23T13:14:20;100152.97;;;34.17
34023;BMP280;20673;48.980;8.138;2022-07-23T13:16:48;100156.36;;;34.67
34023;BMP280;20673;48.980;8.138;2022-07-23T13:19:15;100160.81;;;34.18
34023;BMP280;20673;48.980;8.138;2022-07-23T13:21:42;100157.48;;;33.69
34023;BMP280;20673;48.980;8.138;2022-07-23T13:24:11;100154.31;;;34.39
34023;BMP280;20673;48.980;8.138;2022-07-23T13:26:39;100157.93;;;33.92
34023;BMP280;20673;48.980;8.138;2022-07-23T13:29:06;100161.55;;;34.45
34023;BMP280;20673;48.980;8.138;2022-07-23T13:31:33;100160.95;;;34.46
34023;BMP280;20673;48.980;8.138;2022-07-23T13:33:59;100151.09;;;34.33
34023;BMP280;20673;48.980;8.138;2022-07-23T13:36:25;100165.25;;;34.91
34023;BMP280;20673;48.980;8.138;2022-07-23T13:38:52;100156.57;;;35.07
34023;BMP280;20673;48.980;8.138;2022-07-23T13:41:18;100165.44;;;34.56
34023;BMP280;20673;48.980;8.138;2022-07-23T13:43:45;100159.65;;;34.73
34023;BMP280;20673;48.980;8.138;2022-07-23T13:46:11;100158.94;;;35.27
34023;BMP280;20673;48.980;8.138;2022-07-23T13:48:37;100146.23;;;34.07
34023;BMP280;20673;48.980;8.138;2022-07-23T13:51:04;100155.43;;;34.08
34023;BMP280;20673;48.980;8.138;2022-07-23T13:53:30;100160.74;;;34.22
34023;BMP280;20673;48.980;8.138;2022-07-23T13:55:56;100162.72;;;34.08
34023;BMP280;20673;48.980;8.138;2022-07-23T13:58:23;100158.51;;;34.49
34023;BMP280;20673;48.980;8.138;2022-07-23T14:00:52;100160.70;;;33.74
34023;BMP280;20673;48.980;8.138;2022-07-23T14:03:22;100153.54;;;34.28
34023;BMP280;20673;48.980;8.138;2022-07-23T14:05:52;100138.12;;;33.46
34023;BMP280;20673;48.980;8.138;2022-07-23T14:08:19;100131.54;;;32.88
34023;BMP280;20673;48.980;8.138;2022-07-23T14:10:45;100143.97;;;32.48
34023;BMP280;20673;48.980;8.138;2022-07-23T14:13:12;100142.08;;;32.34
34023;BMP280;20673;48.980;8.138;2022-07-23T14:15:38;100140.29;;;31.94
34023;BMP280;20673;48.980;8.138;2022-07-23T14:18:06;100139.53;;;32.48
34023;BMP280;20673;48.980;8.138;2022-07-23T14:20:33;100140.86;;;32.31
34023;BMP280;20673;48.980;8.138;2022-07-23T14:22:59;100134.28;;;32.32
34023;BMP280;20673;48.980;8.138;2022-07-23T14:25:26;100129.75;;;32.11
34023;BMP280;20673;48.980;8.138;2022-07-23T14:27:53;100126.25;;;31.96
34023;BMP280;20673;48.980;8.138;2022-07-23T14:30:20;100135.36;;;31.79
34023;BMP280;20673;48.980;8.138;2022-07-23T14:32:48;100136.40;;;31.53
34023;BMP280;20673;48.980;8.138;2022-07-23T14:35:14;100137.18;;;31.37